Time;durP1;ratioP1;P1;durP2;ratioP2;P2;SDS_P1;SDS_P2;PMS_P1;PMS_P2;Temp;Humidity;BMP_temperature;BMP_pressure;BME280_temperature;BME280_humidity;BME280_pressure;Samples;Min_cycle;Max_cycle;Signal;HPM_P1;HPM_P2
2022/11/03 00:00:53;;;;;;;6.18;0.77;;;;;;;10.07;88.79;101129.38;2050473;28;20989;-74
2022/11/03 00:01:59;;;;;;;2.70;0.80;;;;;;;10.02;88.54;101131.22;2056752;28;20286;-74
2022/11/03 00:03:05;;;;;;;2.83;0.88;;;;;;;9.99;88.61;101132.53;2064545;28;20296;-74
2022/11/03 00:04:12;;;;;;;2.60;0.65;;;;;;;9.95;88.81;101132.25;2057026;28;20503;-73
2022/11/03 00:06:57;;;;;;;3.13;0.93;;;;;;;9.91;88.85;101133.84;2064143;28;20057;-74
2022/11/03 00:08:02;;;;;;;5.57;0.70;;;;;;;9.88;89.34;101137.06;2056259;28;20297;-73
2022/11/03 00:09:09;;;;;;;2.03;0.90;;;;;;;9.86;89.44;101128.44;2056741;28;20338;-73
2022/11/03 00:10:11;;;;;;;3.13;0.90;;;;;;;9.82;88.90;101132.72;2064270;28;20281;-72
2022/11/03 00:11:17;;;;;;;4.22;0.57;;;;;;;9.84;88.49;101135.97;2064076;28;20728;-73
2022/11/03 00:12:20;;;;;;;3.50;1.20;;;;;;;9.83;89.31;101138.91;2055234;28;20065;-73
2022/11/03 00:13:27;;;;;;;3.53;1.55;;;;;;;9.83;89.32;101134.31;2056779;28;20324;-73
2022/11/03 00:14:32;;;;;;;5.97;0.80;;;;;;;9.84;89.51;101133.28;2056478;28;20293;-73
2022/11/03 00:15:35;;;;;;;4.15;0.60;;;;;;;9.83;89.03;101139.69;2057381;28;20301;-73
2022/11/03 00:16:37;;;;;;;1.90;0.60;;;;;;;9.86;89.34;101133.81;2056879;28;20097;-73
2022/11/03 00:17:40;;;;;;;5.57;0.68;;;;;;;9.88;88.91;101137.06;2048995;28;20302;-73
2022/11/03 00:18:46;;;;;;;3.30;0.80;;;;;;;9.90;89.16;101134.94;2049934;28;20368;-74
2022/11/03 00:19:49;;;;;;;2.50;0.70;;;;;;;9.91;88.99;101141.91;2056707;28;20282;-73
2022/11/03 00:21:10;;;;;;;7.53;1.05;;;;;;;9.88;88.42;101133.56;2056925;28;20792;-73
2022/11/03 00:22:17;;;;;;;5.07;0.52;;;;;;;9.86;88.91;101139.19;2064732;28;20301;-74
2022/11/03 00:23:20;;;;;;;3.15;0.80;;;;;;;9.84;88.90;101145.91;2056744;28;20050;-74
2022/11/03 00:24:22;;;;;;;2.55;0.90;;;;;;;9.83;89.16;101147.75;2056989;28;20072;-74
2022/11/03 00:25:27;;;;;;;6.32;1.00;;;;;;;9.84;89.11;101145.91;2064585;28;20661;-74
2022/11/03 00:26:31;;;;;;;5.13;0.73;;;;;;;9.85;89.04;101145.63;2057151;28;20049;-74
2022/11/03 00:27:37;;;;;;;6.47;0.82;;;;;;;9.87;89.38;101140.81;2055954;28;20070;-74
2022/11/03 00:28:44;;;;;;;11.13;1.20;;;;;;;9.85;89.19;101145.63;2057448;28;20050;-74
2022/11/03 00:29:47;;;;;;;6.07;1.05;;;;;;;9.82;88.55;101153.41;2057607;28;20043;-73
2022/11/03 00:30:48;;;;;;;7.00;1.00;;;;;;;9.80;89.17;101152.84;2048705;28;20302;-74
2022/11/03 00:31:53;;;;;;;6.07;0.93;;;;;;;9.78;89.21;101157.69;2040908;28;20359;-74
2022/11/03 00:32:57;;;;;;;7.40;1.10;;;;;;;9.77;88.88;101151.47;2049557;28;20087;-73
2022/11/03 00:34:01;;;;;;;5.80;1.25;;;;;;;9.75;89.34;101148.25;2057189;28;20049;-74
2022/11/03 00:35:06;;;;;;;6.55;1.15;;;;;;;9.72;89.42;101159.50;2064745;28;20030;-74
2022/11/03 00:36:15;;;;;;;4.55;1.13;;;;;;;9.70;89.44;101150.91;2064718;28;20290;-73
2022/11/03 00:37:20;;;;;;;3.50;1.00;;;;;;;9.67;89.09;101151.41;2065384;28;20305;-74
2022/11/03 00:38:23;;;;;;;9.73;1.23;;;;;;;9.67;89.10;101149.53;2056710;28;20042;-73
2022/11/03 00:39:25;;;;;;;4.63;1.13;;;;;;;9.67;89.33;101154.09;2048725;28;20039;-74
2022/11/03 00:40:33;;;;;;;3.75;0.93;;;;;;;9.68;89.41;101151.16;2057943;28;20354;-73
2022/11/03 00:41:35;;;;;;;4.00;0.70;;;;;;;9.69;89.74;101149.28;2056603;28;20294;-73
2022/11/03 00:42:42;;;;;;;3.50;0.80;;;;;;;9.68;89.69;101153.06;2056031;28;20039;-73
2022/11/03 00:43:47;;;;;;;4.32;0.90;;;;;;;9.68;89.55;101150.38;2064623;28;20344;-74
2022/11/03 00:44:52;;;;;;;3.85;1.02;;;;;;;9.63;89.55;101150.31;2064279;28;20289;-74
2022/11/03 00:45:57;;;;;;;4.30;1.00;;;;;;;9.62;89.50;101151.38;2049018;28;20283;-74
2022/11/03 00:46:59;;;;;;;5.65;0.90;;;;;;;9.63;90.00;101151.13;2048814;28;20495;-73
2022/11/03 00:49:22;;;;;;;6.40;1.08;;;;;;;9.61;89.94;101158.59;2059023;28;20282;-73
2022/11/03 00:50:28;;;;;;;10.25;1.38;;;;;;;9.61;90.27;101157.81;2064195;28;20281;-73
2022/11/03 00:51:33;;;;;;;4.35;0.85;;;;;;;9.62;89.99;101162.13;2064977;28;20753;-73
2022/11/03 00:52:35;;;;;;;8.50;1.70;;;;;;;9.60;90.02;101166.94;2064504;28;20300;-73
2022/11/03 00:53:42;;;;;;;3.15;0.80;;;;;;;9.63;90.18;101161.06;2056235;28;20309;-75
2022/11/03 00:54:48;;;;;;;2.50;0.82;;;;;;;9.65;90.54;101164.31;2059034;28;20038;-74
2022/11/03 00:55:55;;;;;;;3.22;1.20;;;;;;;9.68;90.94;101159.22;2056359;28;20491;-72
2022/11/03 00:57:00;;;;;;;3.75;1.10;;;;;;;9.70;90.58;101165.13;2050651;28;20291;-73
2022/11/03 00:58:03;;;;;;;6.40;1.10;;;;;;;9.68;90.35;101156.53;2060347;28;20780;-73
2022/11/03 00:59:06;;;;;;;9.27;0.90;;;;;;;9.67;90.56;101164.84;2064463;28;20041;-73
2022/11/03 01:00:11;;;;;;;6.00;0.90;;;;;;;9.68;90.87;101163.78;2056476;28;20034;-73
2022/11/03 01:01:27;;;;;;;3.72;0.93;;;;;;;9.69;90.68;101176.13;2064417;28;20468;-73
2022/11/03 01:02:29;;;;;;;4.90;1.00;;;;;;;9.70;90.48;101169.69;2056271;28;20299;-73
2022/11/03 01:03:32;;;;;;;6.53;1.15;;;;;;;9.70;90.71;101164.31;2056479;28;20337;-73
2022/11/03 01:07:21;;;;;;;6.65;0.70;;;;;;;9.72;90.87;101165.69;2064327;28;20285;-74
2022/11/03 01:08:33;;;;;;;5.50;0.93;;;;;;;9.72;90.74;101160.31;2056570;28;20047;-74
2022/11/03 01:09:37;;;;;;;5.40;1.00;;;;;;;9.71;90.60;101157.91;2064244;28;20045;-74
2022/11/03 01:11:42;;;;;;;7.82;0.80;;;;;;;9.68;90.93;101163.78;2056487;28;20294;-74
2022/11/03 01:12:03;;;;;;;4.80;1.02;;;;;;;9.64;90.18;101166.16;2050854;28;20042;-73
2022/11/03 01:13:05;;;;;;;7.28;0.80;;;;;;;9.62;90.76;101165.63;2061280;28;20049;-75
2022/11/03 01:14:15;;;;;;;4.15;0.68;;;;;;;9.60;90.55;101164.25;2073070;28;20378;-74
2022/11/03 01:15:21;;;;;;;8.82;1.67;;;;;;;9.61;90.92;101173.91;2064285;28;20281;-74
2022/11/03 01:16:26;;;;;;;6.10;0.95;;;;;;;9.62;90.96;101172.88;2057231;28;20050;-74
2022/11/03 01:17:29;;;;;;;6.07;0.80;;;;;;;9.63;91.44;101171.78;2072497;28;20740;-74
2022/11/03 01:18:32;;;;;;;6.55;1.83;;;;;;;9.64;91.79;101173.41;2064623;28;20294;-73
2022/11/03 01:19:37;;;;;;;4.03;1.33;;;;;;;9.66;91.32;101177.47;2056832;28;20828;-74
2022/11/03 01:20:42;;;;;;;6.63;1.33;;;;;;;9.67;91.56;101180.94;2057181;28;20302;-74
2022/11/03 01:21:44;;;;;;;4.47;0.52;;;;;;;9.66;91.50;101177.47;2049037;28;20128;-73
2022/11/03 01:22:47;;;;;;;6.65;1.00;;;;;;;9.67;91.62;101180.94;2048687;28;20299;-75
2022/11/03 01:23:52;;;;;;;3.80;0.90;;;;;;;9.68;91.63;101180.69;2057003;28;20045;-76
2022/11/03 01:24:55;;;;;;;4.40;1.20;;;;;;;9.72;91.81;101181.81;2064585;28;20297;-76
2022/11/03 01:26:05;;;;;;;2.22;0.80;;;;;;;9.79;91.78;101183.47;2057102;28;20041;-74
2022/11/03 01:27:14;;;;;;;5.70;0.80;;;;;;;9.84;91.91;101181.63;2049449;28;20349;-75
2022/11/03 01:28:19;;;;;;;10.20;1.23;;;;;;;9.90;91.92;101177.91;2051826;28;20047;-74
2022/11/03 01:29:24;;;;;;;8.77;0.95;;;;;;;9.92;91.33;101186.50;2056765;28;20285;-74
2022/11/03 01:30:26;;;;;;;6.18;1.10;;;;;;;9.94;91.72;101184.38;2048889;28;20050;-74
2022/11/03 01:31:30;;;;;;;4.60;0.82;;;;;;;9.96;91.76;101176.88;2040476;28;20991;-74
2022/11/03 01:32:33;;;;;;;5.72;0.70;;;;;;;9.98;91.32;101177.41;2041290;28;20536;-74
2022/11/03 01:33:35;;;;;;;1.35;0.70;;;;;;;9.98;91.49;101182.78;2048643;28;20794;-74
2022/11/03 01:34:37;;;;;;;7.00;1.02;;;;;;;10.01;91.67;101177.97;2049075;28;20302;-74
2022/11/03 01:35:40;;;;;;;4.28;0.80;;;;;;;10.00;91.38;101179.03;2056399;28;20305;-74
2022/11/03 01:36:42;;;;;;;7.53;1.05;;;;;;;10.03;91.54;101182.00;2056684;28;20038;-75
2022/11/03 01:37:45;;;;;;;4.55;0.68;;;;;;;10.05;91.60;101184.44;2056724;28;20278;-75
2022/11/03 01:38:48;;;;;;;6.05;1.08;;;;;;;10.05;90.87;101185.22;2056319;28;20418;-75
2022/11/03 01:39:54;;;;;;;6.93;1.00;;;;;;;10.06;91.37;101186.88;2057431;28;20076;-75
2022/11/03 01:40:58;;;;;;;4.05;0.90;;;;;;;10.00;90.74;101182.53;2064470;28;20297;-73
2022/11/03 01:42:01;;;;;;;9.80;0.98;;;;;;;9.94;90.60;101183.56;2064513;28;20300;-73
2022/11/03 01:43:22;;;;;;;6.03;0.93;;;;;;;9.93;90.75;101182.75;2064134;28;20304;-73
2022/11/03 01:44:33;;;;;;;3.20;0.80;;;;;;;9.93;90.93;101182.75;2052732;28;20054;-73
2022/11/03 01:45:38;;;;;;;4.10;0.75;;;;;;;9.92;90.46;101189.19;2058048;28;20282;-73
2022/11/03 01:46:54;;;;;;;9.43;0.95;;;;;;;9.88;90.87;101196.16;2055922;28;20293;-74
2022/11/03 01:48:00;;;;;;;5.82;0.73;;;;;;;9.86;90.84;101186.72;2058043;28;20309;-73
2022/11/03 01:49:07;;;;;;;3.35;0.75;;;;;;;9.84;90.98;101189.69;2056679;28;20035;-74
2022/11/03 01:50:18;;;;;;;4.68;1.17;;;;;;;9.82;91.04;101186.44;2040799;29;20322;-74
2022/11/03 01:51:26;;;;;;;8.10;0.90;;;;;;;9.76;91.13;101192.84;2051708;28;20287;-74
2022/11/03 01:52:37;;;;;;;8.95;1.30;;;;;;;9.70;91.00;101186.59;2055968;28;20289;-73
2022/11/03 01:53:45;;;;;;;10.38;1.05;;;;;;;9.70;90.67;101188.50;2049325;28;20293;-74
2022/11/03 01:54:53;;;;;;;7.13;0.98;;;;;;;9.67;90.91;101189.00;2041867;28;20295;-74
2022/11/03 01:56:04;;;;;;;6.47;0.75;;;;;;;9.70;91.45;101188.50;2056092;28;20514;-74
2022/11/03 01:57:14;;;;;;;1.85;0.70;;;;;;;9.74;91.56;101187.72;2056889;28;20046;-74
2022/11/03 01:58:24;;;;;;;10.43;1.10;;;;;;;9.76;90.96;101192.84;2052093;28;20305;-74
2022/11/03 01:59:30;;;;;;;7.95;0.70;;;;;;;9.77;91.32;101189.06;2064151;28;20161;-74
2022/11/03 02:00:34;;;;;;;2.03;0.70;;;;;;;9.81;91.59;101195.56;2063755;28;20313;-75
2022/11/03 02:01:37;;;;;;;6.65;0.82;;;;;;;9.81;91.75;101197.44;2056422;28;20294;-74
2022/11/03 02:02:44;;;;;;;6.68;0.90;;;;;;;9.84;91.70;101196.94;2056460;28;20098;-75
2022/11/03 02:03:52;;;;;;;6.72;1.15;;;;;;;9.86;91.96;101194.78;2056190;28;20805;-75
2022/11/03 02:04:59;;;;;;;5.72;1.15;;;;;;;9.86;91.64;101194.78;2050308;28;20429;-75
2022/11/03 02:06:06;;;;;;;2.15;0.63;;;;;;;9.87;91.46;101188.38;2056555;28;20035;-76
2022/11/03 02:07:19;;;;;;;4.07;0.93;;;;;;;9.86;91.89;101200.16;2056658;28;20282;-75
2022/11/03 02:08:40;;;;;;;5.32;0.80;;;;;;;9.84;91.72;101200.44;2049639;28;20297;-76
2022/11/03 02:09:42;;;;;;;2.47;0.77;;;;;;;9.82;91.37;101186.44;2053075;28;20295;-75
2022/11/03 02:10:47;;;;;;;9.82;1.25;;;;;;;9.83;91.18;101189.91;2056168;28;20370;-76
2022/11/03 02:12:05;;;;;;;5.43;0.88;;;;;;;9.86;91.33;101192.09;2064062;28;20824;-75
2022/11/03 02:13:18;;;;;;;4.70;0.80;;;;;;;9.84;91.31;101194.25;2062948;28;20281;-76
2022/11/03 02:14:20;;;;;;;5.75;0.82;;;;;;;9.85;91.02;101207.41;2056584;28;20285;-75
2022/11/03 02:15:25;;;;;;;7.35;1.10;;;;;;;9.86;90.71;101203.63;2048183;28;20035;-76
2022/11/03 02:16:32;;;;;;;;;;;;;;;9.89;91.53;101197.75;2057244;28;20282;-75
2022/11/03 02:17:36;;;;;;;6.70;0.93;;;;;;;9.91;91.07;101200.19;2055963;28;19914;-75
2022/11/03 02:18:39;;;;;;;5.53;0.80;;;;;;;9.92;90.99;101201.81;2056498;28;20578;-75
2022/11/03 02:19:41;;;;;;;8.50;1.00;;;;;;;9.92;91.09;101199.94;2048606;28;20051;-75
2022/11/03 02:20:46;;;;;;;4.55;1.08;;;;;;;9.91;90.73;101208.25;2055970;28;20386;-73
2022/11/03 02:21:58;;;;;;;7.35;0.90;;;;;;;9.92;91.09;101199.94;2063779;28;20653;-72
2022/11/03 02:23:24;;;;;;;7.05;1.10;;;;;;;9.94;90.79;101194.31;2055893;28;20041;-73
2022/11/03 02:24:53;;;;;;;13.20;1.30;;;;;;;9.97;90.89;101204.53;2043073;29;20059;-73
2022/11/03 02:25:59;;;;;;;6.25;0.80;;;;;;;9.98;90.79;101201.59;2052263;28;20039;-73
2022/11/03 02:27:02;;;;;;;2.30;0.80;;;;;;;10.00;91.24;101198.66;2056048;28;20651;-73
2022/11/03 02:28:07;;;;;;;6.43;0.82;;;;;;;10.01;90.47;101202.13;2056936;28;20057;-75
2022/11/03 02:29:11;;;;;;;7.00;1.00;;;;;;;10.01;90.46;101208.31;2065461;28;20277;-74
2022/11/03 02:30:15;;;;;;;4.82;0.80;;;;;;;10.01;90.50;101202.13;2058412;28;20297;-74
2022/11/03 02:31:29;;;;;;;7.53;1.00;;;;;;;10.00;90.72;101208.59;2058012;28;20090;-75
2022/11/03 02:32:49;;;;;;;3.92;1.02;;;;;;;9.99;90.63;101207.75;2060446;28;20285;-75
2022/11/03 02:34:07;;;;;;;5.20;0.80;;;;;;;9.98;90.38;101211.53;2073584;28;21082;-75
2022/11/03 02:35:25;;;;;;;2.90;0.77;;;;;;;9.93;90.39;101204.25;2073530;28;20046;-72
2022/11/03 02:36:43;;;;;;;6.65;0.88;;;;;;;9.88;89.98;101206.88;2065415;28;20290;-73
2022/11/03 02:37:50;;;;;;;5.93;0.80;;;;;;;9.86;90.13;101206.31;2062221;28;20817;-74
2022/11/03 02:39:02;;;;;;;4.80;0.82;;;;;;;9.85;90.27;101207.41;2058053;28;20297;-73
2022/11/03 02:40:33;;;;;;;10.07;1.02;;;;;;;9.82;90.05;101207.91;2060459;28;20293;-73
2022/11/03 02:41:39;;;;;;;5.80;1.10;;;;;;;9.79;90.04;101208.44;2070452;28;20835;-73
2022/11/03 02:42:48;;;;;;;6.55;0.80;;;;;;;9.80;89.75;101206.56;2065565;28;20289;-73
2022/11/03 02:43:53;;;;;;;5.05;1.27;;;;;;;9.81;90.21;101206.31;2057624;28;20298;-72
2022/11/03 02:44:59;;;;;;;7.43;1.20;;;;;;;9.81;90.46;101211.69;2065730;28;20030;-73
2022/11/03 02:46:03;;;;;;;5.38;1.08;;;;;;;9.83;90.37;101211.41;2066198;28;20277;-72
2022/11/03 02:47:08;;;;;;;4.25;1.08;;;;;;;9.81;90.14;101211.69;2057469;28;20325;-73
2022/11/03 02:48:15;;;;;;;7.15;0.88;;;;;;;9.78;90.08;101209.50;2050896;28;20433;-73
2022/11/03 02:49:17;;;;;;;4.68;0.82;;;;;;;9.75;90.49;101212.69;2066100;28;20585;-73
2022/11/03 02:50:27;;;;;;;7.07;1.00;;;;;;;9.73;90.54;101212.13;2072995;28;20913;-73
2022/11/03 02:51:33;;;;;;;6.35;1.13;;;;;;;9.72;89.98;101218.59;2057542;28;20278;-72
2022/11/03 02:52:42;;;;;;;6.88;1.17;;;;;;;9.69;90.28;101214.53;2042833;28;20294;-72
2022/11/03 02:54:17;;;;;;;11.95;1.23;;;;;;;9.66;90.33;101219.59;2044422;28;20295;-72
2022/11/03 02:55:37;;;;;;;7.60;1.23;;;;;;;9.62;90.09;101223.88;2063205;28;20042;-73
2022/11/03 02:56:47;;;;;;;7.45;0.88;;;;;;;9.63;90.54;101218.25;2067273;28;20285;-73
2022/11/03 02:57:55;;;;;;;2.72;0.77;;;;;;;9.63;91.02;101225.50;2066234;28;20045;-73
2022/11/03 02:59:02;;;;;;;4.50;0.90;;;;;;;9.64;90.85;101216.38;2060525;28;20050;-73
2022/11/03 03:00:11;;;;;;;10.57;1.13;;;;;;;9.64;90.76;101227.09;2066753;28;20634;-73
2022/11/03 03:01:33;;;;;;;10.07;1.13;;;;;;;9.64;90.62;101227.09;2066855;28;20041;-73
2022/11/03 03:02:37;;;;;;;6.70;1.20;;;;;;;9.62;90.58;101218.50;2058370;28;20297;-73
2022/11/03 03:03:47;;;;;;;9.73;1.00;;;;;;;9.60;90.26;101226.00;2050288;28;20047;-72
2022/11/03 03:05:00;;;;;;;1.77;0.80;;;;;;;9.58;90.21;101222.75;2060138;28;20058;-73
2022/11/03 03:06:08;;;;;;;6.00;1.33;;;;;;;9.54;90.38;101214.41;2066508;28;20042;-72
2022/11/03 03:07:33;;;;;;;5.75;0.88;;;;;;;9.51;90.49;101213.03;2050499;28;20301;-73
2022/11/03 03:08:45;;;;;;;8.32;1.23;;;;;;;9.40;90.38;101222.06;2051298;28;20839;-73
2022/11/03 03:09:59;;;;;;;4.85;1.00;;;;;;;9.34;90.80;101224.97;2059811;28;20689;-72
2022/11/03 03:11:04;;;;;;;8.68;1.58;;;;;;;9.32;91.17;101216.34;2058739;28;20290;-72
2022/11/03 03:12:09;;;;;;;5.85;1.30;;;;;;;9.28;90.85;101219.53;2049429;28;20302;-74
2022/11/03 03:13:15;;;;;;;3.97;0.90;;;;;;;9.27;91.01;101217.13;2057492;28;20282;-73
2022/11/03 03:14:23;;;;;;;8.90;1.48;;;;;;;9.27;91.07;101222.50;2063128;28;20309;-73
2022/11/03 03:16:09;;;;;;;10.95;1.20;;;;;;;9.26;91.19;101220.84;2058762;28;20294;-72
2022/11/03 03:17:22;;;;;;;5.15;1.10;;;;;;;9.23;90.95;101218.66;2061057;28;20300;-71
2022/11/03 03:18:36;;;;;;;6.68;1.15;;;;;;;9.19;91.32;101214.88;2058137;28;20306;-72
2022/11/03 03:19:39;;;;;;;5.28;1.10;;;;;;;9.16;91.67;101221.56;2058675;28;20294;-74
2022/11/03 03:21:04;;;;;;;11.13;1.20;;;;;;;9.14;91.76;101225.56;2058616;28;20297;-73
2022/11/03 03:22:51;;;;;;;5.47;1.23;;;;;;;9.09;91.83;101214.78;2072658;28;20602;-73
2022/11/03 03:24:00;;;;;;;8.70;1.65;;;;;;;9.07;92.06;101222.25;2072708;28;20296;-74
2022/11/03 03:25:12;;;;;;;4.75;0.90;;;;;;;9.07;91.87;101216.91;2074231;28;20308;-73
2022/11/03 03:26:27;;;;;;;4.32;0.82;;;;;;;9.05;92.28;101211.78;2074208;28;20513;-73
2022/11/03 03:27:32;;;;;;;3.10;1.00;;;;;;;9.07;92.27;101222.25;2068074;28;20696;-72
2022/11/03 03:28:42;;;;;;;9.25;1.52;;;;;;;9.07;92.32;101222.25;2072309;28;20296;-73
2022/11/03 03:29:51;;;;;;;6.72;1.25;;;;;;;9.07;92.17;101227.63;2057020;28;20289;-73
2022/11/03 03:30:56;;;;;;;11.15;1.13;;;;;;;9.05;92.62;101222.53;2059323;28;20839;-73
2022/11/03 03:32:03;;;;;;;9.95;1.90;;;;;;;9.04;92.06;101221.69;2066228;28;20049;-72
2022/11/03 03:33:10;;;;;;;12.63;1.38;;;;;;;9.02;91.81;101221.16;2057983;28;20293;-73
2022/11/03 03:34:15;;;;;;;6.75;1.50;;;;;;;9.02;92.13;101231.06;2059598;28;20301;-73
2022/11/03 03:35:29;;;;;;;9.18;1.42;;;;;;;8.99;92.10;101223.53;2050231;29;20298;-74
2022/11/03 03:36:37;;;;;;;5.53;1.52;;;;;;;8.98;92.16;101228.06;2047508;28;20744;-73
2022/11/03 03:37:46;;;;;;;8.38;1.40;;;;;;;8.96;92.21;101232.88;2066328;28;20288;-73
2022/11/03 03:38:56;;;;;;;8.30;1.25;;;;;;;8.95;92.61;101231.28;2057621;28;20302;-73
2022/11/03 03:40:01;;;;;;;8.82;1.48;;;;;;;8.94;92.91;101228.81;2060178;28;20630;-73
2022/11/03 03:41:09;;;;;;;12.60;1.88;;;;;;;8.94;93.15;101237.69;2073450;28;20796;-73
2022/11/03 03:42:16;;;;;;;5.10;1.88;;;;;;;8.95;93.33;101235.81;2056968;28;20655;-73
2022/11/03 03:43:20;;;;;;;9.32;1.42;;;;;;;8.95;92.74;101236.63;2058530;28;20638;-74
2022/11/03 03:44:27;;;;;;;9.13;1.77;;;;;;;8.94;93.06;101235.00;2071381;28;20293;-75
2022/11/03 03:45:31;;;;;;;9.57;1.95;;;;;;;8.96;93.23;101240.94;2056887;28;20294;-74
2022/11/03 03:47:02;;;;;;;7.28;1.33;;;;;;;8.96;93.15;101235.56;2057695;28;20603;-74
2022/11/03 03:48:06;;;;;;;;;;;;;;;8.97;93.53;101239.84;2057385;28;21001;-74
2022/11/03 03:49:12;;;;;;;6.05;1.20;;;;;;;8.97;93.31;101234.50;2049807;28;19914;-74
2022/11/03 03:50:15;;;;;;;5.43;1.50;;;;;;;8.97;93.43;101239.84;2041911;29;20295;-74
2022/11/03 03:51:25;;;;;;;11.48;1.90;;;;;;;9.01;93.40;101238.28;2050137;28;20294;-74
2022/11/03 03:52:29;;;;;;;5.78;1.20;;;;;;;9.03;93.65;101249.59;2056891;28;20302;-75
2022/11/03 03:53:34;;;;;;;7.88;1.38;;;;;;;9.08;93.66;101245.34;2049688;28;20325;-74
2022/11/03 03:54:36;;;;;;;12.75;1.65;;;;;;;9.05;93.90;101239.44;2064684;28;20289;-74
2022/11/03 03:55:44;;;;;;;5.28;1.20;;;;;;;9.11;93.41;101244.81;2064953;28;20285;-74
2022/11/03 03:57:02;;;;;;;7.05;1.70;;;;;;;9.15;93.67;101244.09;2064940;28;20296;-74
2022/11/03 03:58:04;;;;;;;6.35;1.67;;;;;;;9.19;93.82;101239.03;2065064;28;20293;-72
2022/11/03 03:59:08;;;;;;;11.48;1.67;;;;;;;9.23;94.14;101248.19;2058517;28;20702;-73
2022/11/03 04:00:14;;;;;;;8.88;1.50;;;;;;;9.25;94.07;101249.56;2064802;28;20305;-74
2022/11/03 04:01:16;;;;;;;8.45;1.92;;;;;;;9.30;93.94;101248.81;2057611;28;20302;-73
2022/11/03 04:02:19;;;;;;;9.25;1.90;;;;;;;9.35;94.01;101250.72;2057649;28;20317;-74
2022/11/03 04:03:25;;;;;;;6.45;1.58;;;;;;;9.35;93.68;101251.53;2058189;28;20278;-73
2022/11/03 04:04:27;;;;;;;8.23;1.60;;;;;;;9.37;93.43;101254.78;2049999;29;20710;-73
2022/11/03 04:05:32;;;;;;;5.38;1.52;;;;;;;9.39;93.98;101252.63;2051159;28;20294;-73
2022/11/03 04:06:35;;;;;;;10.23;1.95;;;;;;;9.43;93.67;101252.97;2057734;28;20328;-73
2022/11/03 04:07:46;;;;;;;7.55;1.60;;;;;;;9.44;93.75;101255.38;2058977;28;20658;-73
2022/11/03 04:08:51;;;;;;;9.52;1.50;;;;;;;9.46;93.79;101253.28;2057860;28;20298;-73
2022/11/03 04:09:53;;;;;;;7.78;1.48;;;;;;;9.48;93.90;101258.38;2042318;28;20287;-73
2022/11/03 04:22:16;;;;;;;4.20;1.40;;;;;;;9.63;93.49;101253.16;2059685;28;20301;-73
2022/11/03 04:23:19;;;;;;;5.60;1.33;;;;;;;9.66;93.04;101251.84;2056667;28;20297;-73
2022/11/03 04:24:21;;;;;;;9.07;1.80;;;;;;;9.66;92.78;101251.84;2048889;28;20811;-73
2022/11/03 04:25:25;;;;;;;5.00;1.45;;;;;;;9.67;92.70;101253.44;2057002;28;20293;-72
2022/11/03 04:26:28;;;;;;;5.65;1.65;;;;;;;9.69;92.90;101256.69;2056403;28;20386;-73
2022/11/03 04:27:36;;;;;;;6.15;1.40;;;;;;;9.71;92.69;101251.88;2049327;28;20746;-72
2022/11/03 04:28:41;;;;;;;6.00;1.40;;;;;;;9.74;92.57;101252.19;2058632;28;20295;-72
2022/11/03 04:29:45;;;;;;;9.88;1.67;;;;;;;9.77;92.67;101253.53;2056508;28;20298;-72
2022/11/03 04:30:48;;;;;;;10.88;2.08;;;;;;;9.79;92.12;101250.59;2057661;28;20289;-72
2022/11/03 04:31:53;;;;;;;5.30;1.48;;;;;;;9.80;92.60;101253.00;2057442;28;20301;-71
2022/11/03 04:32:56;;;;;;;8.55;1.67;;;;;;;9.82;92.81;101256.25;2050228;28;20302;-72
2022/11/03 04:33:59;;;;;;;12.25;2.17;;;;;;;9.83;92.58;101257.88;2050173;28;20295;-72
2022/11/03 04:35:01;;;;;;;7.85;1.40;;;;;;;9.82;92.64;101267.00;2049985;28;20289;-72
2022/11/03 04:36:17;;;;;;;10.23;1.60;;;;;;;9.83;92.29;101260.56;2049554;28;20682;-72
2022/11/03 04:37:20;;;;;;;7.60;1.58;;;;;;;9.78;91.73;101257.84;2054499;28;20118;-72
2022/11/03 04:38:26;;;;;;;8.18;1.50;;;;;;;9.80;91.83;101258.38;2057878;28;20290;-73
2022/11/03 04:39:31;;;;;;;12.48;1.42;;;;;;;9.82;91.67;101260.81;2042193;29;20043;-73
2022/11/03 04:40:33;;;;;;;8.05;1.48;;;;;;;9.81;91.87;101253.84;2049651;28;20050;-73
2022/11/03 04:41:37;;;;;;;8.38;1.40;;;;;;;9.81;91.82;101257.34;2057370;28;20290;-73
2022/11/03 04:42:46;;;;;;;8.82;1.40;;;;;;;9.81;91.47;101256.53;2049519;28;20287;-73
2022/11/03 04:43:52;;;;;;;2.95;1.20;;;;;;;9.79;91.20;101262.16;2043571;28;20295;-73
2022/11/03 04:45:01;;;;;;;7.57;1.63;;;;;;;9.75;91.65;101263.72;2061808;28;20042;-73
2022/11/03 04:46:08;;;;;;;5.53;1.60;;;;;;;9.71;91.92;101268.00;2065351;28;20294;-73
2022/11/03 04:47:12;;;;;;;8.65;1.33;;;;;;;9.69;91.20;101264.75;2072610;28;20288;-73
2022/11/03 04:48:23;;;;;;;5.60;1.50;;;;;;;9.66;91.50;101266.06;2056885;28;20288;-73
2022/11/03 04:49:26;;;;;;;5.40;1.45;;;;;;;9.65;91.39;101269.00;2059236;28;20286;-73
2022/11/03 04:50:28;;;;;;;7.20;1.67;;;;;;;9.65;91.42;101264.44;2064169;28;20304;-73
2022/11/03 04:51:34;;;;;;;5.88;1.60;;;;;;;9.63;91.02;101271.94;2063844;28;20781;-72
2022/11/03 04:52:36;;;;;;;3.50;1.38;;;;;;;9.62;91.15;101272.22;2072579;28;20042;-72
2022/11/03 04:53:48;;;;;;;7.32;1.80;;;;;;;9.61;91.21;101268.69;2064322;28;20297;-72
2022/11/03 04:54:56;;;;;;;6.95;1.80;;;;;;;9.59;91.71;101272.72;2066069;28;20277;-72
2022/11/03 04:55:59;;;;;;;9.10;1.85;;;;;;;9.58;91.18;101265.72;2072800;28;20354;-73
2022/11/03 04:57:10;;;;;;;4.53;1.45;;;;;;;9.56;91.40;101267.84;2065468;28;20312;-73
2022/11/03 04:58:19;;;;;;;8.77;1.80;;;;;;;9.54;91.05;101265.41;2065430;28;20297;-72
2022/11/03 04:59:25;;;;;;;7.20;1.58;;;;;;;9.52;91.28;101272.91;2049348;28;20683;-73
2022/11/03 05:00:28;;;;;;;6.30;1.63;;;;;;;9.47;90.96;101265.63;2050204;28;20294;-72
2022/11/03 05:01:30;;;;;;;9.90;1.90;;;;;;;9.46;91.46;101263.19;2065675;28;20764;-73
2022/11/03 05:02:32;;;;;;;11.98;2.05;;;;;;;9.46;91.58;101264.00;2065093;28;20642;-74
2022/11/03 05:03:36;;;;;;;14.85;2.83;;;;;;;9.47;91.35;101260.25;2071492;28;20684;-75
2022/11/03 05:04:41;;;;;;;8.40;1.80;;;;;;;9.48;91.23;101259.16;2081561;28;20299;-75
2022/11/03 05:05:44;;;;;;;6.05;1.60;;;;;;;9.48;91.30;101259.16;2073565;28;20297;-75
2022/11/03 05:06:54;;;;;;;5.10;1.80;;;;;;;9.47;91.13;101257.56;2073488;28;20285;-75
2022/11/03 05:07:59;;;;;;;5.55;1.45;;;;;;;9.46;91.13;101260.50;2065553;28;20297;-75
2022/11/03 05:09:12;;;;;;;7.63;1.85;;;;;;;9.42;91.34;101257.50;2066392;28;20289;-74
2022/11/03 05:10:20;;;;;;;9.77;2.03;;;;;;;9.38;91.06;101256.41;2072860;28;20045;-74
2022/11/03 05:11:37;;;;;;;9.07;1.63;;;;;;;9.36;90.91;101252.34;2065692;28;20317;-74
2022/11/03 05:12:41;;;;;;;7.75;1.67;;;;;;;9.33;91.41;101248.31;2067772;28;20281;-75
2022/11/03 05:13:47;;;;;;;7.95;1.63;;;;;;;9.33;91.31;101248.31;2080141;28;20280;-76
2022/11/03 05:14:51;;;;;;;8.68;1.88;;;;;;;9.31;91.46;101255.78;2073764;28;20300;-73
2022/11/03 05:16:05;;;;;;;9.20;1.73;;;;;;;9.28;91.08;101257.09;2062849;28;20289;-73
2022/11/03 05:17:23;;;;;;;6.32;1.60;;;;;;;9.25;91.17;101251.44;2065625;28;20286;-74
2022/11/03 05:18:31;;;;;;;4.93;1.50;;;;;;;9.22;90.78;101251.94;2066560;28;20525;-73
2022/11/03 05:19:40;;;;;;;11.52;2.00;;;;;;;9.19;91.20;101255.13;2048911;28;20318;-73
2022/11/03 05:20:55;;;;;;;8.60;1.73;;;;;;;9.18;91.16;101250.84;2044189;28;20287;-73
2022/11/03 05:22:00;;;;;;;5.43;1.90;;;;;;;9.17;91.44;101262.59;2051093;28;21017;-75
2022/11/03 05:23:06;;;;;;;7.28;1.52;;;;;;;9.13;90.98;101259.63;2041306;28;20299;-75
2022/11/03 05:24:16;;;;;;;5.30;1.50;;;;;;;9.12;91.10;101267.94;2058797;28;20674;-75
2022/11/03 05:25:35;;;;;;;8.18;2.10;;;;;;;9.10;91.23;101259.31;2065233;28;20038;-75
2022/11/03 05:26:39;;;;;;;8.65;1.52;;;;;;;9.05;91.83;101257.41;2062044;28;20635;-74
2022/11/03 05:27:41;;;;;;;13.60;1.80;;;;;;;9.02;91.42;101266.75;2057385;28;20297;-73
2022/11/03 05:28:51;;;;;;;8.23;1.50;;;;;;;8.99;91.18;101269.13;2041998;28;20291;-73
2022/11/03 05:29:57;;;;;;;11.05;2.05;;;;;;;8.98;91.30;101270.97;2048824;28;20303;-73
2022/11/03 05:30:59;;;;;;;5.15;1.40;;;;;;;8.98;91.41;101265.59;2057559;28;20305;-73
2022/11/03 05:32:15;;;;;;;12.10;2.47;;;;;;;8.96;91.59;101272.31;2065265;28;20689;-73
2022/11/03 05:33:20;;;;;;;5.40;1.80;;;;;;;8.94;91.59;101271.75;2065287;28;20669;-73
2022/11/03 05:34:50;;;;;;;7.22;1.60;;;;;;;8.90;91.97;101266.06;2057192;28;20293;-73